sensor_id;sensor_type;location;lat;lon;timestamp;pressure;altitude;pressure_sealevel;temperature;humidity
10006;BME280;5042;42.626;23.382;2023-02-24T00:01:13;94387.84;;;7.11;100.00
10006;BME280;5042;42.626;23.382;2023-02-24T00:03:51;94384.72;;;7.15;100.00
10006;BME280;5042;42.626;23.382;2023-02-24T00:06:18;94379.66;;;7.22;100.00
10006;BME280;5042;42.626;23.382;2023-02-24T00:08:45;94381.00;;;7.10;100.00
10006;BME280;5042;42.626;23.382;2023-02-24T00:11:14;94287.03;;;6.55;100.00
10006;BME280;5042;42.626;23.382;2023-02-24T00:13:41;94374.16;;;7.09;100.00
10006;BME280;5042;42.626;23.382;2023-02-24T00:16:12;94377.59;;;7.01;100.00
10006;BME280;5042;42.626;23.382;2023-02-24T00:18:39;94374.19;;;7.00;100.00
10006;BME280;5042;42.626;23.382;2023-02-24T00:21:09;94371.25;;;7.04;100.00
10006;BME280;5042;42.626;23.382;2023-02-24T00:23:38;94375.63;;;7.11;100.00
10006;BME280;5042;42.626;23.382;2023-02-24T00:26:06;94363.63;;;6.94;100.00
10006;BME280;5042;42.626;23.382;2023-02-24T00:28:34;94374.34;;;6.99;100.00
10006;BME280;5042;42.626;23.382;2023-02-24T00:31:02;94356.44;;;6.88;100.00
10006;BME280;5042;42.626;23.382;2023-02-24T00:33:30;94371.75;;;6.99;100.00
10006;BME280;5042;42.626;23.382;2023-02-24T00:36:04;94367.06;;;6.86;100.00
10006;BME280;5042;42.626;23.382;2023-02-24T00:38:32;94347.72;;;6.72;100.00
10006;BME280;5042;42.626;23.382;2023-02-24T00:41:01;94366.56;;;6.91;100.00
10006;BME280;5042;42.626;23.382;2023-02-24T00:43:33;94332.44;;;6.61;100.00
10006;BME280;5042;42.626;23.382;2023-02-24T00:46:01;94353.88;;;6.79;100.00
10006;BME280;5042;42.626;23.382;2023-02-24T00:48:36;94355.19;;;6.75;100.00
10006;BME280;5042;42.626;23.382;2023-02-24T00:51:05;94352.09;;;6.80;100.00
10006;BME280;5042;42.626;23.382;2023-02-24T00:53:34;94353.88;;;6.71;100.00
10006;BME280;5042;42.626;23.382;2023-02-24T00:56:00;94356.03;;;6.68;100.00
10006;BME280;5042;42.626;23.382;2023-02-24T00:58:27;94352.91;;;6.64;100.00
10006;BME280;5042;42.626;23.382;2023-02-24T01:00:54;94348.38;;;6.66;100.00
10006;BME280;5042;42.626;23.382;2023-02-24T01:03:22;94339.13;;;6.55;100.00
10006;BME280;5042;42.626;23.382;2023-02-24T01:05:50;94336.66;;;6.54;100.00
10006;BME280;5042;42.626;23.382;2023-02-24T01:08:18;94327.72;;;6.56;100.00
10006;BME280;5042;42.626;23.382;2023-02-24T01:10:55;94332.91;;;6.56;100.00
10006;BME280;5042;42.626;23.382;2023-02-24T01:13:43;94304.66;;;6.29;100.00
10006;BME280;5042;42.626;23.382;2023-02-24T01:16:10;94337.50;;;6.46;100.00
10006;BME280;5042;42.626;23.382;2023-02-24T01:18:38;94343.50;;;6.47;100.00
10006;BME280;5042;42.626;23.382;2023-02-24T01:21:04;94335.06;;;6.45;100.00
10006;BME280;5042;42.626;23.382;2023-02-24T01:23:31;94302.19;;;6.19;100.00
10006;BME280;5042;42.626;23.382;2023-02-24T01:26:01;94336.69;;;6.46;100.00
10006;BME280;5042;42.626;23.382;2023-02-24T01:28:28;94333.91;;;6.47;100.00
10006;BME280;5042;42.626;23.382;2023-02-24T01:30:59;94325.94;;;6.49;100.00
10006;BME280;5042;42.626;23.382;2023-02-24T01:33:27;94323.19;;;6.42;100.00
10006;BME280;5042;42.626;23.382;2023-02-24T01:35:55;94322.03;;;6.45;100.00
10006;BME280;5042;42.626;23.382;2023-02-24T01:38:22;94317.66;;;6.37;100.00
10006;BME280;5042;42.626;23.382;2023-02-24T01:40:55;94322.53;;;6.40;100.00
10006;BME280;5042;42.626;23.382;2023-02-24T01:43:23;94315.53;;;6.49;100.00
10006;BME280;5042;42.626;23.382;2023-02-24T01:45:52;94313.38;;;6.52;100.00
10006;BME280;5042;42.626;23.382;2023-02-24T01:48:19;94321.53;;;6.49;100.00
10006;BME280;5042;42.626;23.382;2023-02-24T01:50:47;94255.22;;;6.12;100.00
10006;BME280;5042;42.626;23.382;2023-02-24T01:53:14;94323.81;;;6.52;100.00
10006;BME280;5042;42.626;23.382;2023-02-24T01:55:43;94313.25;;;6.46;100.00
10006;BME280;5042;42.626;23.382;2023-02-24T01:58:18;94319.44;;;6.45;100.00
10006;BME280;5042;42.626;23.382;2023-02-24T02:00:47;94319.75;;;6.42;100.00
10006;BME280;5042;42.626;23.382;2023-02-24T02:03:23;94316.34;;;6.33;100.00
10006;BME280;5042;42.626;23.382;2023-02-24T02:05:54;94326.63;;;6.34;100.00
10006;BME280;5042;42.626;23.382;2023-02-24T02:08:23;94314.25;;;6.36;100.00
10006;BME280;5042;42.626;23.382;2023-02-24T02:10:50;94307.09;;;6.30;100.00
10006;BME280;5042;42.626;23.382;2023-02-24T02:13:24;94304.31;;;6.24;100.00
10006;BME280;5042;42.626;23.382;2023-02-24T02:16:02;94312.97;;;6.24;100.00
10006;BME280;5042;42.626;23.382;2023-02-24T02:18:39;94244.00;;;5.79;100.00
10006;BME280;5042;42.626;23.382;2023-02-24T02:21:27;94305.16;;;6.24;100.00
10006;BME280;5042;42.626;23.382;2023-02-24T02:30:26;94299.47;;;6.12;100.00
10006;BME280;5042;42.626;23.382;2023-02-24T02:33:19;94312.31;;;6.22;100.00
10006;BME280;5042;42.626;23.382;2023-02-24T02:35:56;94307.09;;;6.06;100.00
10006;BME280;5042;42.626;23.382;2023-02-24T02:38:27;94320.59;;;6.09;100.00
10006;BME280;5042;42.626;23.382;2023-02-24T02:41:04;94311.50;;;6.13;100.00
10006;BME280;5042;42.626;23.382;2023-02-24T02:43:36;94313.78;;;6.08;100.00
10006;BME280;5042;42.626;23.382;2023-02-24T02:46:07;94314.59;;;6.01;100.00
10006;BME280;5042;42.626;23.382;2023-02-24T02:48:44;94309.69;;;5.98;100.00
10006;BME280;5042;42.626;23.382;2023-02-24T02:51:17;94295.53;;;5.84;100.00
10006;BME280;5042;42.626;23.382;2023-02-24T02:53:49;94308.72;;;5.99;100.00
10006;BME280;5042;42.626;23.382;2023-02-24T02:56:20;94297.03;;;5.94;100.00
10006;BME280;5042;42.626;23.382;2023-02-24T02:58:51;94297.53;;;5.98;100.00
10006;BME280;5042;42.626;23.382;2023-02-24T03:01:21;94271.59;;;5.88;100.00
10006;BME280;5042;42.626;23.382;2023-02-24T03:03:53;94278.16;;;6.01;100.00
10006;BME280;5042;42.626;23.382;2023-02-24T03:06:25;94284.66;;;6.13;100.00
10006;BME280;5042;42.626;23.382;2023-02-24T03:08:56;94278.97;;;6.18;100.00
10006;BME280;5042;42.626;23.382;2023-02-24T03:11:25;94279.44;;;6.29;100.00
10006;BME280;5042;42.626;23.382;2023-02-24T03:13:55;94277.97;;;6.27;100.00
10006;BME280;5042;42.626;23.382;2023-02-24T03:16:23;94279.13;;;6.24;100.00
10006;BME280;5042;42.626;23.382;2023-02-24T03:18:56;94289.53;;;6.24;100.00
10006;BME280;5042;42.626;23.382;2023-02-24T03:21:30;94282.69;;;6.23;100.00
10006;BME280;5042;42.626;23.382;2023-02-24T03:24:00;94290.16;;;6.26;100.00
10006;BME280;5042;42.626;23.382;2023-02-24T03:26:32;94301.09;;;6.22;100.00
10006;BME280;5042;42.626;23.382;2023-02-24T03:29:08;94293.59;;;6.27;100.00
10006;BME280;5042;42.626;23.382;2023-02-24T03:31:41;94298.94;;;6.33;100.00
10006;BME280;5042;42.626;23.382;2023-02-24T03:34:14;94303.53;;;6.31;100.00
10006;BME280;5042;42.626;23.382;2023-02-24T03:36:45;94304.78;;;6.35;100.00
10006;BME280;5042;42.626;23.382;2023-02-24T03:39:12;94306.75;;;6.25;100.00
10006;BME280;5042;42.626;23.382;2023-02-24T03:41:45;94312.94;;;6.16;100.00
10006;BME280;5042;42.626;23.382;2023-02-24T03:44:15;94304.81;;;6.19;100.00
10006;BME280;5042;42.626;23.382;2023-02-24T03:46:42;94300.25;;;6.21;100.00
10006;BME280;5042;42.626;23.382;2023-02-24T03:49:12;94277.81;;;6.04;100.00
10006;BME280;5042;42.626;23.382;2023-02-24T03:51:41;94291.47;;;6.14;100.00
10006;BME280;5042;42.626;23.382;2023-02-24T03:54:21;94294.88;;;6.14;100.00
10006;BME280;5042;42.626;23.382;2023-02-24T03:57:05;94300.59;;;6.10;100.00
10006;BME280;5042;42.626;23.382;2023-02-24T03:59:44;94296.69;;;6.06;100.00
10006;BME280;5042;42.626;23.382;2023-02-24T04:02:18;94311.63;;;6.12;100.00
10006;BME280;5042;42.626;23.382;2023-02-24T04:04:49;94296.03;;;6.04;100.00
10006;BME280;5042;42.626;23.382;2023-02-24T04:07:31;94296.03;;;6.04;100.00
10006;BME280;5042;42.626;23.382;2023-02-24T04:10:08;94280.91;;;5.99;100.00
10006;BME280;5042;42.626;23.382;2023-02-24T04:12:41;94288.25;;;6.04;100.00
10006;BME280;5042;42.626;23.382;2023-02-24T04:15:16;94288.22;;;6.12;100.00
10006;BME280;5042;42.626;23.382;2023-02-24T04:17:48;94296.03;;;6.04;100.00
10006;BME280;5042;42.626;23.382;2023-02-24T04:20:18;94285.63;;;5.95;100.00
10006;BME280;5042;42.626;23.382;2023-02-24T04:22:48;94280.72;;;5.92;100.00
10006;BME280;5042;42.626;23.382;2023-02-24T04:25:19;94284.81;;;5.95;100.00
10006;BME280;5042;42.626;23.382;2023-02-24T04:27:50;94274.91;;;5.99;100.00
10006;BME280;5042;42.626;23.382;2023-02-24T04:30:18;94280.78;;;6.01;100.00
10006;BME280;5042;42.626;23.382;2023-02-24T04:32:45;94274.88;;;6.07;100.00
10006;BME280;5042;42.626;23.382;2023-02-24T04:35:14;94234.22;;;5.81;100.00
10006;BME280;5042;42.626;23.382;2023-02-24T04:37:42;94218.66;;;5.65;100.00
10006;BME280;5042;42.626;23.382;2023-02-24T04:40:10;94270.81;;;6.21;100.00
10006;BME280;5042;42.626;23.382;2023-02-24T04:42:39;94225.47;;;5.99;100.00
10006;BME280;5042;42.626;23.382;2023-02-24T04:45:11;94263.22;;;6.03;100.00
10006;BME280;5042;42.626;23.382;2023-02-24T04:47:38;94274.25;;;6.05;100.00
10006;BME280;5042;42.626;23.382;2023-02-24T04:50:08;94274.56;;;5.93;100.00
10006;BME280;5042;42.626;23.382;2023-02-24T04:52:36;94270.19;;;5.94;100.00
10006;BME280;5042;42.626;23.382;2023-02-24T04:55:03;94269.72;;;5.99;100.00
10006;BME280;5042;42.626;23.382;2023-02-24T04:57:35;94261.91;;;5.99;100.00
10006;BME280;5042;42.626;23.382;2023-02-24T05:00:05;94263.03;;;6.04;100.00
10006;BME280;5042;42.626;23.382;2023-02-24T05:02:45;94258.97;;;6.02;100.00
10006;BME280;5042;42.626;23.382;2023-02-24T05:05:13;94211.16;;;5.70;100.00
10006;BME280;5042;42.626;23.382;2023-02-24T05:07:40;94256.34;;;6.02;100.00
10006;BME280;5042;42.626;23.382;2023-02-24T05:10:12;94258.00;;;6.03;100.00
10006;BME280;5042;42.626;23.382;2023-02-24T05:12:39;94257.66;;;6.06;100.00
10006;BME280;5042;42.626;23.382;2023-02-24T05:15:09;94255.72;;;6.08;100.00
10006;BME280;5042;42.626;23.382;2023-02-24T05:17:37;94258.28;;;6.16;100.00
10006;BME280;5042;42.626;23.382;2023-02-24T05:20:06;94268.72;;;6.16;100.00
10006;BME280;5042;42.626;23.382;2023-02-24T05:22:51;94271.97;;;6.18;100.00
10006;BME280;5042;42.626;23.382;2023-02-24T05:25:18;94264.13;;;6.26;100.00
10006;BME280;5042;42.626;23.382;2023-02-24T05:27:45;94275.38;;;6.27;100.00
10006;BME280;5042;42.626;23.382;2023-02-24T05:30:14;94264.63;;;6.30;100.00
10006;BME280;5042;42.626;23.382;2023-02-24T05:32:41;94279.41;;;6.37;100.00
10006;BME280;5042;42.626;23.382;2023-02-24T05:35:08;94275.81;;;6.47;100.00
10006;BME280;5042;42.626;23.382;2023-02-24T05:37:37;94266.19;;;6.47;100.00
10006;BME280;5042;42.626;23.382;2023-02-24T05:40:08;94272.88;;;6.50;100.00
10006;BME280;5042;42.626;23.382;2023-02-24T05:42:38;94278.41;;;6.47;100.00
10006;BME280;5042;42.626;23.382;2023-02-24T05:45:07;94272.25;;;6.48;100.00
10006;BME280;5042;42.626;23.382;2023-02-24T05:47:37;94257.94;;;6.44;100.00
10006;BME280;5042;42.626;23.382;2023-02-24T05:50:05;94281.78;;;6.64;100.00
10006;BME280;5042;42.626;23.382;2023-02-24T05:52:34;94290.09;;;6.59;100.00
10006;BME280;5042;42.626;23.382;2023-02-24T05:55:02;94280.00;;;6.64;100.00
10006;BME280;5042;42.626;23.382;2023-02-24T05:57:31;94289.44;;;6.65;100.00
10006;BME280;5042;42.626;23.382;2023-02-24T06:00:01;94284.28;;;6.49;100.00
10006;BME280;5042;42.626;23.382;2023-02-24T06:02:37;94288.31;;;6.59;100.00
10006;BME280;5042;42.626;23.382;2023-02-24T06:05:08;94281.81;;;6.55;100.00
10006;BME280;5042;42.626;23.382;2023-02-24T06:07:50;94212.75;;;6.20;100.00
10006;BME280;5042;42.626;23.382;2023-02-24T06:10:27;94277.72;;;6.61;100.00
10006;BME280;5042;42.626;23.382;2023-02-24T06:12:55;94288.16;;;6.61;100.00
10006;BME280;5042;42.626;23.382;2023-02-24T06:15:22;94285.38;;;6.54;100.00
10006;BME280;5042;42.626;23.382;2023-02-24T06:17:50;94287.19;;;6.54;100.00
10006;BME280;5042;42.626;23.382;2023-02-24T06:20:17;94296.78;;;6.53;100.00
10006;BME280;5042;42.626;23.382;2023-02-24T06:22:44;94295.31;;;6.59;100.00
10006;BME280;5042;42.626;23.382;2023-02-24T06:25:13;94296.47;;;6.56;100.00
10006;BME280;5042;42.626;23.382;2023-02-24T06:27:40;94302.47;;;6.57;100.00
10006;BME280;5042;42.626;23.382;2023-02-24T06:30:08;94296.00;;;6.53;100.00
10006;BME280;5042;42.626;23.382;2023-02-24T06:32:35;94299.25;;;6.55;100.00
10006;BME280;5042;42.626;23.382;2023-02-24T06:35:04;94303.16;;;6.51;100.00
10006;BME280;5042;42.626;23.382;2023-02-24T06:37:31;94289.78;;;6.54;100.00
10006;BME280;5042;42.626;23.382;2023-02-24T06:39:59;94293.69;;;6.50;100.00
10006;BME280;5042;42.626;23.382;2023-02-24T06:42:25;94280.47;;;6.59;100.00
10006;BME280;5042;42.626;23.382;2023-02-24T06:44:52;94289.63;;;6.55;100.00
10006;BME280;5042;42.626;23.382;2023-02-24T06:47:19;94297.09;;;6.58;100.00
10006;BME280;5042;42.626;23.382;2023-02-24T06:49:47;94292.69;;;6.67;100.00
10006;BME280;5042;42.626;23.382;2023-02-24T06:52:15;94300.81;;;6.72;100.00
10006;BME280;5042;42.626;23.382;2023-02-24T06:54:43;94293.31;;;6.77;100.00
10006;BME280;5042;42.626;23.382;2023-02-24T06:57:11;94290.53;;;6.79;100.00
10006;BME280;5042;42.626;23.382;2023-02-24T06:59:38;94286.59;;;6.83;100.00
10006;BME280;5042;42.626;23.382;2023-02-24T07:02:05;94283.84;;;6.85;100.00
10006;BME280;5042;42.626;23.382;2023-02-24T07:04:32;94280.44;;;6.84;100.00
10006;BME280;5042;42.626;23.382;2023-02-24T07:07:08;94278.97;;;6.73;100.00
10006;BME280;5042;42.626;23.382;2023-02-24T07:09:40;94279.63;;;6.75;100.00
10006;BME280;5042;42.626;23.382;2023-02-24T07:12:09;94253.13;;;6.72;100.00
10006;BME280;5042;42.626;23.382;2023-02-24T07:14:37;94264.59;;;6.94;100.00
10006;BME280;5042;42.626;23.382;2023-02-24T07:17:04;94264.97;;;7.14;100.00
10006;BME280;5042;42.626;23.382;2023-02-24T07:19:32;94267.63;;;7.37;100.00
10006;BME280;5042;42.626;23.382;2023-02-24T07:22:00;94255.81;;;7.49;100.00
10006;BME280;5042;42.626;23.382;2023-02-24T07:24:29;94260.56;;;7.46;100.00
10006;BME280;5042;42.626;23.382;2023-02-24T07:27:03;94255.94;;;7.56;100.00
10006;BME280;5042;42.626;23.382;2023-02-24T07:29:31;94256.97;;;7.70;100.00
10006;BME280;5042;42.626;23.382;2023-02-24T07:31:59;94259.44;;;7.71;100.00
10006;BME280;5042;42.626;23.382;2023-02-24T07:34:28;94270.66;;;7.72;100.00
10006;BME280;5042;42.626;23.382;2023-02-24T07:36:56;94259.88;;;7.75;100.00
10006;BME280;5042;42.626;23.382;2023-02-24T07:39:24;94207.94;;;7.65;100.00
10006;BME280;5042;42.626;23.382;2023-02-24T07:41:52;94275.56;;;8.13;100.00
10006;BME280;5042;42.626;23.382;2023-02-24T07:44:21;94212.91;;;7.75;100.00
10006;BME280;5042;42.626;23.382;2023-02-24T07:46:49;94245.94;;;8.05;100.00
10006;BME280;5042;42.626;23.382;2023-02-24T07:49:18;94261.50;;;8.14;100.00
10006;BME280;5042;42.626;23.382;2023-02-24T07:51:45;94265.63;;;8.31;100.00
10006;BME280;5042;42.626;23.382;2023-02-24T07:54:17;94230.91;;;8.22;100.00
10006;BME280;5042;42.626;23.382;2023-02-24T07:56:45;94215.78;;;8.03;100.00
10006;BME280;5042;42.626;23.382;2023-02-24T07:59:23;94253.19;;;8.33;100.00
10006;BME280;5042;42.626;23.382;2023-02-24T08:01:50;94243.84;;;8.54;100.00
10006;BME280;5042;42.626;23.382;2023-02-24T08:04:22;94262.59;;;8.72;100.00
10006;BME280;5042;42.626;23.382;2023-02-24T08:06:49;94247.03;;;8.79;100.00
10006;BME280;5042;42.626;23.382;2023-02-24T08:09:22;94228.81;;;8.70;100.00
10006;BME280;5042;42.626;23.382;2023-02-24T08:12:10;94257.81;;;8.90;100.00
10006;BME280;5042;42.626;23.382;2023-02-24T08:14:44;94208.72;;;8.71;100.00
10006;BME280;5042;42.626;23.382;2023-02-24T08:17:15;94247.91;;;9.37;100.00
10006;BME280;5042;42.626;23.382;2023-02-24T08:19:45;94253.44;;;9.85;100.00
10006;BME280;5042;42.626;23.382;2023-02-24T08:22:12;94241.88;;;9.80;100.00
10006;BME280;5042;42.626;23.382;2023-02-24T08:24:51;94224.44;;;9.65;100.00
10006;BME280;5042;42.626;23.382;2023-02-24T08:27:19;94226.72;;;9.75;100.00
10006;BME280;5042;42.626;23.382;2023-02-24T08:29:49;94240.59;;;9.69;100.00
10006;BME280;5042;42.626;23.382;2023-02-24T08:32:30;94237.91;;;9.62;100.00
10006;BME280;5042;42.626;23.382;2023-02-24T08:34:59;94231.09;;;9.46;100.00
10006;BME280;5042;42.626;23.382;2023-02-24T08:37:28;94190.88;;;9.11;100.00
10006;BME280;5042;42.626;23.382;2023-02-24T08:39:58;94243.28;;;9.54;100.00
10006;BME280;5042;42.626;23.382;2023-02-24T08:42:24;94219.53;;;9.19;100.00
10006;BME280;5042;42.626;23.382;2023-02-24T08:45:01;94203.13;;;8.74;100.00
10006;BME280;5042;42.626;23.382;2023-02-24T08:47:28;94238.63;;;8.83;100.00
10006;BME280;5042;42.626;23.382;2023-02-24T08:50:01;94208.44;;;8.81;100.00
10006;BME280;5042;42.626;23.382;2023-02-24T08:52:31;94235.56;;;8.95;100.00
10006;BME280;5042;42.626;23.382;2023-02-24T08:54:59;94208.53;;;8.58;100.00
10006;BME280;5042;42.626;23.382;2023-02-24T08:57:26;94203.47;;;8.86;100.00
10006;BME280;5042;42.626;23.382;2023-02-24T08:59:53;94240.03;;;9.37;100.00
10006;BME280;5042;42.626;23.382;2023-02-24T09:02:24;94234.59;;;9.53;100.00
10006;BME280;5042;42.626;23.382;2023-02-24T09:04:56;94227.00;;;9.59;100.00
10006;BME280;5042;42.626;23.382;2023-02-24T09:07:25;94243.03;;;9.92;100.00
10006;BME280;5042;42.626;23.382;2023-02-24T09:09:53;94240.03;;;10.23;100.00
10006;BME280;5042;42.626;23.382;2023-02-24T09:12:23;94193.19;;;10.35;100.00
10006;BME280;5042;42.626;23.382;2023-02-24T09:14:51;94234.03;;;10.92;100.00
10006;BME280;5042;42.626;23.382;2023-02-24T09:17:24;94238.84;;;11.30;100.00
10006;BME280;5042;42.626;23.382;2023-02-24T09:20:15;94232.19;;;11.41;100.00
10006;BME280;5042;42.626;23.382;2023-02-24T09:23:20;94228.94;;;10.77;100.00
10006;BME280;5042;42.626;23.382;2023-02-24T09:25:55;94195.56;;;10.02;100.00
10006;BME280;5042;42.626;23.382;2023-02-24T09:28:23;94216.41;;;10.16;100.00
10006;BME280;5042;42.626;23.382;2023-02-24T09:30:51;94204.16;;;10.24;100.00
10006;BME280;5042;42.626;23.382;2023-02-24T09:33:25;94217.28;;;10.24;100.00
10006;BME280;5042;42.626;23.382;2023-02-24T09:35:55;94214.06;;;10.00;100.00
10006;BME280;5042;42.626;23.382;2023-02-24T09:38:28;94207.50;;;9.83;100.00
10006;BME280;5042;42.626;23.382;2023-02-24T09:41:22;94208.22;;;9.76;100.00
10006;BME280;5042;42.626;23.382;2023-02-24T09:43:57;94209.06;;;10.05;100.00
10006;BME280;5042;42.626;23.382;2023-02-24T09:46:32;94200.66;;;10.38;100.00
10006;BME280;5042;42.626;23.382;2023-02-24T09:49:07;94182.00;;;10.26;100.00
10006;BME280;5042;42.626;23.382;2023-02-24T09:51:38;94213.78;;;10.38;100.00
10006;BME280;5042;42.626;23.382;2023-02-24T09:54:13;94200.81;;;10.65;100.00
10006;BME280;5042;42.626;23.382;2023-02-24T09:56:46;94206.97;;;10.50;100.00
10006;BME280;5042;42.626;23.382;2023-02-24T09:59:20;94200.75;;;10.51;100.00
10006;BME280;5042;42.626;23.382;2023-02-24T10:01:57;94199.97;;;10.57;100.00
10006;BME280;5042;42.626;23.382;2023-02-24T10:04:41;94194.66;;;10.44;100.00
10006;BME280;5042;42.626;23.382;2023-02-24T10:07:15;94182.53;;;10.15;100.00
10006;BME280;5042;42.626;23.382;2023-02-24T10:09:47;94173.13;;;10.21;100.00
10006;BME280;5042;42.626;23.382;2023-02-24T10:12:20;94177.72;;;10.40;100.00
10006;BME280;5042;42.626;23.382;2023-02-24T10:14:51;94184.81;;;10.25;100.00
10006;BME280;5042;42.626;23.382;2023-02-24T10:17:39;94172.47;;;10.40;100.00
10006;BME280;5042;42.626;23.382;2023-02-24T10:20:15;94161.06;;;10.26;100.00
10006;BME280;5042;42.626;23.382;2023-02-24T10:22:58;94174.56;;;10.51;100.00
10006;BME280;5042;42.626;23.382;2023-02-24T10:25:39;94175.41;;;10.65;100.00
10006;BME280;5042;42.626;23.382;2023-02-24T10:28:22;94118.41;;;10.39;100.00
10006;BME280;5042;42.626;23.382;2023-02-24T10:31:05;94146.09;;;10.48;100.00
10006;BME280;5042;42.626;23.382;2023-02-24T10:33:36;94158.88;;;10.65;100.00
10006;BME280;5042;42.626;23.382;2023-02-24T10:36:12;94152.56;;;10.52;100.00
10006;BME280;5042;42.626;23.382;2023-02-24T10:38:42;94127.66;;;10.28;100.00
10006;BME280;5042;42.626;23.382;2023-02-24T10:41:10;94133.25;;;10.25;100.00
10006;BME280;5042;42.626;23.382;2023-02-24T10:43:37;94114.13;;;9.96;100.00
10006;BME280;5042;42.626;23.382;2023-02-24T10:46:21;94133.63;;;9.87;100.00
10006;BME280;5042;42.626;23.382;2023-02-24T10:48:52;94120.19;;;9.97;100.00
10006;BME280;5042;42.626;23.382;2023-02-24T10:51:29;94117.41;;;10.05;100.00
10006;BME280;5042;42.626;23.382;2023-02-24T10:54:11;94111.19;;;10.13;100.00
10006;BME280;5042;42.626;23.382;2023-02-24T10:57:10;94114.44;;;10.15;100.00
10006;BME280;5042;42.626;23.382;2023-02-24T10:59:48;94104.97;;;10.14;100.00
10006;BME280;5042;42.626;23.382;2023-02-24T11:02:48;94109.59;;;10.12;100.00
10006;BME280;5042;42.626;23.382;2023-02-24T11:05:36;94106.22;;;10.18;100.00
10006;BME280;5042;42.626;23.382;2023-02-24T11:08:13;94094.97;;;9.96;100.00
10006;BME280;5042;42.626;23.382;2023-02-24T11:11:01;94093.97;;;9.90;100.00
10006;BME280;5042;42.626;23.382;2023-02-24T11:13:33;94092.31;;;9.83;100.00
10006;BME280;5042;42.626;23.382;2023-02-24T11:16:19;94096.00;;;9.95;100.00
10006;BME280;5042;42.626;23.382;2023-02-24T11:19:05;94071.66;;;10.01;100.00
10006;BME280;5042;42.626;23.382;2023-02-24T11:21:32;94082.03;;;10.16;100.00
10006;BME280;5042;42.626;23.382;2023-02-24T11:24:03;94072.84;;;10.33;100.00
10006;BME280;5042;42.626;23.382;2023-02-24T11:26:33;94075.28;;;10.35;100.00
10006;BME280;5042;42.626;23.382;2023-02-24T11:29:19;94077.72;;;10.43;100.00
10006;BME280;5042;42.626;23.382;2023-02-24T11:32:03;94069.34;;;10.61;100.00
10006;BME280;5042;42.626;23.382;2023-02-24T11:34:39;94062.50;;;10.67;100.00
10006;BME280;5042;42.626;23.382;2023-02-24T11:37:20;94057.50;;;10.85;100.00
10006;BME280;5042;42.626;23.382;2023-02-24T11:39:58;94044.00;;;10.88;100.00
10006;BME280;5042;42.626;23.382;2023-02-24T11:42:30;94048.44;;;10.94;100.00
10006;BME280;5042;42.626;23.382;2023-02-24T11:45:03;94032.34;;;11.11;100.00
10006;BME280;5042;42.626;23.382;2023-02-24T11:47:38;93996.19;;;10.99;100.00
10006;BME280;5042;42.626;23.382;2023-02-24T11:50:25;94026.69;;;11.14;100.00
10006;BME280;5042;42.626;23.382;2023-02-24T11:52:56;94025.06;;;10.99;100.00
10006;BME280;5042;42.626;23.382;2023-02-24T11:55:28;94016.78;;;10.89;100.00
10006;BME280;5042;42.626;23.382;2023-02-24T11:58:04;94008.31;;;10.87;100.00
10006;BME280;5042;42.626;23.382;2023-02-24T12:00:36;94004.84;;;10.80;100.00
10006;BME280;5042;42.626;23.382;2023-02-24T12:03:13;93995.34;;;10.72;100.00
10006;BME280;5042;42.626;23.382;2023-02-24T12:05:47;93911.38;;;10.26;100.00
10006;BME280;5042;42.626;23.382;2023-02-24T12:08:21;93996.56;;;10.76;100.00
10006;BME280;5042;42.626;23.382;2023-02-24T12:10:57;93940.25;;;10.39;100.00
10006;BME280;5042;42.626;23.382;2023-02-24T12:13:34;93982.47;;;10.84;100.00
10006;BME280;5042;42.626;23.382;2023-02-24T12:16:06;93978.84;;;10.98;100.00
10006;BME280;5042;42.626;23.382;2023-02-24T12:18:38;93955.03;;;10.93;100.00
10006;BME280;5042;42.626;23.382;2023-02-24T12:21:08;93977.81;;;11.13;100.00
10006;BME280;5042;42.626;23.382;2023-02-24T12:23:40;93970.38;;;11.23;100.00
10006;BME280;5042;42.626;23.382;2023-02-24T12:26:16;93955.84;;;11.27;100.00
10006;BME280;5042;42.626;23.382;2023-02-24T12:28:57;93958.81;;;11.51;100.00
10006;BME280;5042;42.626;23.382;2023-02-24T12:31:34;93916.69;;;11.25;100.00
10006;BME280;5042;42.626;23.382;2023-02-24T12:34:06;93935.41;;;11.42;100.00
10006;BME280;5042;42.626;23.382;2023-02-24T12:36:54;93946.91;;;11.48;100.00
10006;BME280;5042;42.626;23.382;2023-02-24T12:39:28;93943.66;;;11.66;100.00
10006;BME280;5042;42.626;23.382;2023-02-24T12:42:07;93919.25;;;11.45;100.00
10006;BME280;5042;42.626;23.382;2023-02-24T12:44:43;93961.78;;;11.81;100.00
10006;BME280;5042;42.626;23.382;2023-02-24T12:47:16;93959.78;;;11.90;100.00
10006;BME280;5042;42.626;23.382;2023-02-24T12:50:06;93958.38;;;11.74;100.00
10006;BME280;5042;42.626;23.382;2023-02-24T12:52:46;93965.63;;;11.92;100.00
10006;BME280;5042;42.626;23.382;2023-02-24T12:55:22;93952.59;;;12.10;100.00
10006;BME280;5042;42.626;23.382;2023-02-24T12:58:02;93918.34;;;11.92;100.00
10006;BME280;5042;42.626;23.382;2023-02-24T13:00:36;93945.69;;;12.22;100.00
10006;BME280;5042;42.626;23.382;2023-02-24T13:03:20;93944.94;;;12.08;100.00
10006;BME280;5042;42.626;23.382;2023-02-24T13:05:52;93935.06;;;12.04;100.00
10006;BME280;5042;42.626;23.382;2023-02-24T13:08:34;93941.69;;;12.13;100.00
10006;BME280;5042;42.626;23.382;2023-02-24T13:11:11;93890.00;;;12.00;100.00
10006;BME280;5042;42.626;23.382;2023-02-24T13:13:46;93925.91;;;12.51;100.00
10006;BME280;5042;42.626;23.382;2023-02-24T13:16:26;93931.63;;;12.73;100.00
10006;BME280;5042;42.626;23.382;2023-02-24T13:19:03;93922.09;;;13.04;100.00
10006;BME280;5042;42.626;23.382;2023-02-24T13:21:31;93949.28;;;13.48;100.00
10006;BME280;5042;42.626;23.382;2023-02-24T13:24:00;93935.63;;;13.76;100.00
10006;BME280;5042;42.626;23.382;2023-02-24T13:26:29;93928.44;;;13.65;100.00
10006;BME280;5042;42.626;23.382;2023-02-24T13:29:04;93929.50;;;13.39;100.00
10006;BME280;5042;42.626;23.382;2023-02-24T13:31:42;93925.97;;;13.27;100.00